• Join FlightAware (Why Join?)
  • Login
  • US Flag 
06:20PM EST


 

Airport Tracker/Info


-or-


 

Live Flight TrackerFlight Track Log ✈ DAL6231 ✈ 26-Apr-2013 ✈ KLGA - CYHZ

Flight Track Log - Related Links

Times and Time Zones

All times are in EDT time to prevent confusion due to time zone crossing. See the DAL6231 flight status page for this flight to view local times or setup timezone preferences in your user account.

Time Position Orientation Groundspeed Altitude Reporting Facility
EDT Latitude Longitude Course Direction KTS MPH feet Rate Location/Type
10:10PM 40.7667 -73.8000 44° Northeast 200 230 2,200  Level New York TRACON
10:11PM 40.8000 -73.7667 37° Northeast 211 243 4,700 2,460 Climbing New York TRACON
10:12PM 40.8500 -73.7000 45° Northeast 260 299 6,900 2,160 Climbing New York TRACON
10:13PM 40.9419 -73.5942 41° Northeast 282 325 10,300 1,920 Climbing Boston Center
10:14PM 41.0072 -73.5292 37° Northeast 309 356 12,000 1,800 Climbing Boston Center
10:15PM 41.1821 -73.3731 44° Northeast  Level FlightAware Approximate
10:15PM 41.0933 -73.4372 39° Northeast 349 402 13,900  Level Boston Center
10:16PM 41.1775 -73.3500 38° Northeast 367 422 16,000 1,860 Climbing Boston Center
10:17PM 41.2514 -73.2381 49° Northeast 380 437 17,700 1,560 Climbing Boston Center
10:18PM 41.3189 -73.1172 53° Northeast 397 457 19,200 1,680 Climbing Boston Center
10:19PM 41.3883 -72.9989 52° Northeast 403 464 21,100 1,800 Climbing Boston Center
10:20PM 41.4597 -72.8722 53° Northeast 408 470 22,800 1,500 Climbing Boston Center
10:21PM 41.5289 -72.7506 53° Northeast 408 470 24,100 1,080 Climbing Boston Center
10:22PM 41.5917 -72.6344 54° Northeast 408 470 25,000 900 Climbing Boston Center
10:23PM 41.6625 -72.4956 56° Northeast 429 494 26,000 1,020 Climbing Boston Center
10:24PM 41.7356 -72.3594 54° Northeast 451 519 27,100 960 Climbing Boston Center
10:25PM 41.8375 -72.2533 38° Northeast 446 513 28,000 900 Climbing Boston Center
10:26PM 41.9394 -72.1528 36° Northeast 451 519 29,000 960 Climbing Boston Center
10:27PM 42.0267 -72.0208 48° Northeast 451 519 30,000 960 Climbing Boston Center
10:28PM 42.1114 -71.8889 49° Northeast 459 528 31,000 1,020 Climbing Boston Center
10:29PM 42.1961 -71.7592 49° Northeast 464 534 32,100 1,020 Climbing Boston Center
10:30PM 42.2808 -71.6236 50° Northeast 464 534 33,100 960 Climbing Boston Center
10:31PM 42.3775 -71.4817 47° Northeast 464 534 34,100 900 Climbing Boston Center
10:32PM 42.4597 -71.3481 50° Northeast 464 534 34,900 660 Climbing Boston Center
10:33PM 42.5417 -71.2142 50° Northeast 464 534 35,500 600 Climbing Boston Center
10:34PM 42.6278 -71.0800 49° Northeast 464 534 36,100 600 Climbing Boston Center
10:35PM 42.7114 -70.9425 50° Northeast 469 540 36,700 420 Climbing Boston Center
10:36PM 42.7972 -70.8047 50° Northeast 469 540 37,000 120 Climbing Boston Center
10:37PM 42.8847 -70.6606 50° Northeast 474 545 37,000  Level Boston Center
10:38PM 42.9719 -70.5133 51° Northeast 480 552 37,000  Level Boston Center
10:39PM 43.0611 -70.3714 49° Northeast 486 559 37,000  Level Boston Center
10:40PM 43.1500 -70.2203 51° Northeast 491 565 37,000  Level Boston Center
10:41PM 43.2367 -70.0717 51° Northeast 501 577 37,000  Level Boston Center
10:42PM 43.3250 -69.9228 51° Northeast 501 577 37,000  Level Boston Center
10:43PM 43.4156 -69.7731 50° Northeast 501 577 37,000  Level Boston Center
10:44PM 43.5036 -69.6261 50° Northeast 501 577 37,000  Level Boston Center
10:45PM 43.5936 -69.4728 51° Northeast 501 577 37,000  Level Boston Center
10:46PM 43.6814 -69.3250 51° Northeast 507 583 37,000  Level Boston Center
10:47PM 43.7708 -69.1708 51° Northeast 507 583 37,000  Level Boston Center
10:48PM 43.8581 -69.0192 51° Northeast 507 583 37,000  Level Boston Center
10:49PM 43.9456 -68.8728 50° Northeast 500 575 37,000  Level Boston Center
10:50PM 44.0344 -68.7203 51° Northeast 500 575 37,000  Level Boston Center
10:51PM 44.1053 -68.5972 51° Northeast 505 581 37,000  Level Boston Center
10:52PM 44.2053 -68.4111 53° Northeast 505 581 37,000  Level Boston Center
10:53PM 44.2936 -68.2569 51° Northeast 505 581 37,000  Level Boston Center
10:54PM 44.3817 -68.1025 51° Northeast 505 581 37,000  Level Boston Center
10:55PM 44.4694 -67.9447 52° Northeast 505 581 37,000  Level Boston Center
10:56PM 44.5569 -67.7864 52° Northeast 505 581 37,000  Level Boston Center
10:57PM 44.5667 -67.7500 69° East 510 587 37,000  Level Moncton Center
10:57PM 44.6425 -67.6339 47° Northeast 505 581 37,000  Level Boston Center
10:58PM 44.7294 -67.4717 53° Northeast 505 581 37,000  Level Boston Center
10:59PM 44.8183 -67.3119 52° Northeast 512 589 37,000  Level Boston Center
11:00PM 44.8167 -67.2667 93° East 510 587 37,000  Level Moncton Center
11:01PM 44.8667 -67.0833 69° East 510 587 37,000  Level Moncton Center
11:02PM 44.8833 -66.9000 83° East 500 575 37,000  Level Moncton Center
11:03PM 44.9000 -66.6833 84° East 500 575 37,000  Level Moncton Center
11:04PM 44.9000 -66.5000 90° East 500 575 37,000  Level Moncton Center
11:05PM 44.9000 -66.3167 90° East 500 575 37,000  Level Moncton Center
11:06PM 44.9167 -66.1000 84° East 500 575 37,000  Level Moncton Center
11:07PM 44.9167 -65.9167 90° East 500 575 37,000 -1,200 Level Moncton Center
11:08PM 44.9167 -65.7000 90° East 500 575 34,600 -2,700 Descending Moncton Center
11:09PM 44.9000 -65.5000 97° East 490 564 31,700 -3,000 Descending Moncton Center
11:10PM 44.8833 -65.3333 98° East 470 541 28,700 -3,180 Descending Moncton Center
11:11PM 44.8667 -65.1500 97° East 450 518 25,400 -3,180 Descending Moncton Center
11:12PM 44.8500 -64.9833 98° East 440 506 22,400 -3,120 Descending Moncton Center
11:13PM 44.8167 -64.8167 106° East 420 483 19,200 -2,940 Descending Moncton Center
11:14PM 44.8000 -64.6833 100° East 410 472 16,600 -2,820 Descending Moncton Center
11:15PM 44.7833 -64.5167 98° East 400 460 13,600 -2,700 Descending Moncton Center
11:16PM 44.7667 -64.3667 99° East 380 437 11,200 -1,800 Descending Moncton Center
11:17PM 44.7500 -64.2500 101° East 320 368 10,100 -1,440 Descending Moncton Center
11:18PM 44.7500 -64.1333 90° East 280 322 8,400 -1,680 Descending Moncton Center
11:19PM 44.7333 -64.0500 106° East 250 288 6,800 -1,500 Descending Moncton Center
11:20PM 44.7167 -63.9667 106° East 220 253 5,400 -1,380 Descending Moncton Center
11:21PM 44.7167 -63.8833 90° East 210 242 4,100 -1,320 Descending Moncton Center
11:22PM 44.7000 -63.8167 109° East 200 230 2,800 -840 Descending Moncton Center
11:23PM 44.7000 -63.7333 90° East 180 207 2,500 -180 Descending Moncton Center
11:24PM 44.7000 -63.6667 90° East 160 184 2,500 -300 Level Moncton Center
11:25PM 44.7333 -63.6500 20° North 160 184 2,000 -300 Descending Moncton Center
11:26PM 44.7667 -63.6000 47° Northeast 150 173 2,000 -60 Level Moncton Center
11:27PM 44.7833 -63.5667 55° Northeast 120 138 1,900 -600 Descending Moncton Center
11:28PM 44.8167 -63.5500 20° North 110 127 900 -600 Descending Moncton Center
11:29PM 44.8500 -63.5167 35° Northeast 130 150 700 -240 Descending Moncton Center